Time,TemperatureF,DewpointF,PressureIn,WindDirection,WindDirectionDegrees,WindSpeedMPH,WindSpeedGustMPH,Humidity,HourlyPrecipIn,Conditions,Clouds,dailyrainin,SoftwareType,DateUTC
2013-03-18 00:00:00,25.0,10.7,30.22,SW,227,0.0,0.0,54,0.00,,CLR,0.08,VWS V13.00,2013-03-18 04:00:00,
2013-03-18 00:05:00,24.8,10.9,30.22,SW,227,0.0,0.0,55,0.00,,CLR,0.00,VWS V13.00,2013-03-18 04:05:00,
2013-03-18 00:10:00,24.6,10.8,30.22,SW,227,0.0,0.0,55,0.00,,CLR,0.00,VWS V13.00,2013-03-18 04:10:00,
2013-03-18 00:15:00,24.4,10.2,30.22,SW,227,0.0,0.0,54,0.00,,CLR,0.00,VWS V13.00,2013-03-18 04:15:00,
2013-03-18 00:20:00,24.4,10.2,30.22,SW,227,0.0,0.0,54,0.00,,CLR,0.00,VWS V13.00,2013-03-18 04:20:00,
2013-03-18 00:25:00,24.4,10.6,30.22,SW,227,0.0,0.0,55,0.00,,CLR,0.00,VWS V13.00,2013-03-18 04:25:00,
2013-03-18 00:30:00,24.3,10.0,30.22,SW,227,0.0,0.0,54,0.00,,CLR,0.00,VWS V13.00,2013-03-18 04:30:00,
2013-03-18 00:35:00,24.1,10.3,30.22,SW,227,0.0,0.0,55,0.00,,CLR,0.00,VWS V13.00,2013-03-18 04:35:00,
2013-03-18 00:40:00,24.1,10.3,30.22,SW,227,0.0,0.0,55,0.00,,CLR,0.00,VWS V13.00,2013-03-18 04:40:00,
2013-03-18 00:46:00,24.6,10.8,30.22,SW,227,0.0,0.0,55,0.00,,CLR,0.00,VWS V13.00,2013-03-18 04:46:00,
2013-03-18 00:51:00,24.6,10.4,30.22,SW,227,0.0,0.0,54,0.00,,CLR,0.00,VWS V13.00,2013-03-18 04:51:00,
2013-03-18 00:56:00,24.4,10.2,30.22,SW,227,0.0,0.0,54,0.00,,CLR,0.00,VWS V13.00,2013-03-18 04:56:00,
2013-03-18 01:01:00,23.9,10.1,30.22,SW,227,0.0,0.0,55,0.00,,CLR,0.00,VWS V13.00,2013-03-18 05:01:00,
2013-03-18 01:06:00,23.7,9.9,30.22,SW,227,0.0,0.0,55,0.00,,CLR,0.00,VWS V13.00,2013-03-18 05:06:00,
2013-03-18 01:11:00,23.9,10.5,30.22,SW,227,2.2,3.1,56,0.00,,CLR,0.00,VWS V13.00,2013-03-18 05:11:00,
2013-03-18 01:16:00,23.9,10.1,30.22,SW,227,0.0,3.1,55,0.00,,CLR,0.00,VWS V13.00,2013-03-18 05:16:00,
2013-03-18 01:21:00,24.1,10.7,30.22,SW,227,2.7,2.7,56,0.00,,CLR,0.00,VWS V13.00,2013-03-18 05:21:00,
2013-03-18 01:26:00,23.7,10.3,30.22,SW,227,2.7,3.1,56,0.00,,CLR,0.00,VWS V13.00,2013-03-18 05:26:00,
2013-03-18 01:32:00,24.6,11.2,30.22,SW,228,3.6,4.0,56,0.00,,CLR,0.00,VWS V13.00,2013-03-18 05:32:00,
2013-03-18 01:37:00,24.6,10.8,30.22,SW,231,2.2,4.5,55,0.00,,CLR,0.00,VWS V13.00,2013-03-18 05:37:00,
2013-03-18 01:42:00,24.4,10.6,30.22,SW,232,2.2,2.2,55,0.00,,CLR,0.00,VWS V13.00,2013-03-18 05:42:00,
2013-03-18 01:47:00,24.3,10.0,30.22,SW,236,3.1,4.0,54,0.00,,CLR,0.00,VWS V13.00,2013-03-18 05:47:00,
2013-03-18 01:52:00,24.1,9.9,30.22,WSW,241,2.7,4.0,54,0.00,,CLR,0.00,VWS V13.00,2013-03-18 05:52:00,
2013-03-18 01:57:00,24.1,9.9,30.22,North,4,2.7,4.0,54,0.00,,CLR,0.00,VWS V13.00,2013-03-18 05:57:00,
2013-03-18 02:02:00,24.1,9.9,30.22,NNE,12,3.1,3.6,54,0.00,,CLR,0.00,VWS V13.00,2013-03-18 06:02:00,
2013-03-18 02:07:00,24.1,9.4,30.22,NNE,23,3.6,4.0,53,0.00,,CLR,0.00,VWS V13.00,2013-03-18 06:07:00,
2013-03-18 02:12:00,23.9,9.3,30.22,NNE,23,3.6,4.9,53,0.00,,CLR,0.00,VWS V13.00,2013-03-18 06:12:00,
2013-03-18 02:17:00,24.3,10.0,30.22,NNE,23,3.6,5.4,54,0.00,,CLR,0.00,VWS V13.00,2013-03-18 06:17:00,
2013-03-18 02:22:00,23.9,9.7,30.22,NNE,30,4.0,4.0,54,0.00,,CLR,0.00,VWS V13.00,2013-03-18 06:22:00,
2013-03-18 02:27:00,24.1,9.9,30.22,NNE,31,2.7,4.0,54,0.00,,CLR,0.00,VWS V13.00,2013-03-18 06:27:00,
2013-03-18 02:32:00,24.3,10.0,30.22,NNE,31,4.0,4.0,54,0.00,,CLR,0.00,VWS V13.00,2013-03-18 06:32:00,
2013-03-18 02:37:00,24.4,10.2,30.22,NE,34,3.1,4.9,54,0.00,,CLR,0.00,VWS V13.00,2013-03-18 06:37:00,
2013-03-18 02:42:00,24.4,10.2,30.22,NE,37,4.0,5.4,54,0.00,,CLR,0.00,VWS V13.00,2013-03-18 06:42:00,
2013-03-18 02:47:00,24.4,10.2,30.22,NE,36,4.0,5.4,54,0.00,,CLR,0.00,VWS V13.00,2013-03-18 06:47:00,
2013-03-18 02:52:00,24.3,10.0,30.22,NE,36,4.0,5.4,54,0.00,,CLR,0.00,VWS V13.00,2013-03-18 06:52:00,
2013-03-18 02:57:00,24.1,9.9,30.25,NNE,32,3.1,5.4,54,0.00,,CLR,0.00,VWS V13.00,2013-03-18 06:57:00,
2013-03-18 03:02:00,23.5,9.4,30.25,NNE,27,0.0,3.1,54,0.00,,CLR,0.00,VWS V13.00,2013-03-18 07:02:00,
2013-03-18 03:08:00,23.0,8.9,30.25,NNE,27,2.7,3.1,54,0.00,,CLR,0.00,VWS V13.00,2013-03-18 07:08:00,
2013-03-18 03:13:00,22.6,8.9,30.25,NNE,27,0.0,3.1,55,0.00,,CLR,0.00,VWS V13.00,2013-03-18 07:13:00,
2013-03-18 03:18:00,22.6,8.9,30.25,NNE,21,0.0,3.6,55,0.00,,CLR,0.00,VWS V13.00,2013-03-18 07:18:00,
2013-03-18 03:23:00,22.3,8.6,30.25,NNE,21,2.7,2.7,55,0.00,,CLR,0.00,VWS V13.00,2013-03-18 07:23:00,
2013-03-18 03:28:00,22.6,8.9,30.25,NNE,18,0.0,3.1,55,0.00,,CLR,0.00,VWS V13.00,2013-03-18 07:28:00,
2013-03-18 03:33:00,22.3,8.6,30.25,NNE,18,0.0,3.1,55,0.00,,CLR,0.00,VWS V13.00,2013-03-18 07:33:00,
2013-03-18 03:38:00,22.1,8.4,30.25,NNE,18,2.2,3.1,55,0.00,,CLR,0.00,VWS V13.00,2013-03-18 07:38:00,
2013-03-18 03:43:00,22.6,9.3,30.25,ENE,72,3.6,3.6,56,0.00,,CLR,0.00,VWS V13.00,2013-03-18 07:43:00,
2013-03-18 03:48:00,23.4,9.6,30.25,NE,35,4.0,4.9,55,0.00,,CLR,0.00,VWS V13.00,2013-03-18 07:48:00,
2013-03-18 03:53:00,23.4,9.2,30.25,NE,35,2.7,4.9,54,0.00,,CLR,0.00,VWS V13.00,2013-03-18 07:53:00,
2013-03-18 03:58:00,23.4,9.2,30.25,NE,35,3.6,4.9,54,0.00,,CLR,0.00,VWS V13.00,2013-03-18 07:58:00,
2013-03-18 04:03:00,23.4,9.2,30.25,NE,35,2.7,4.0,54,0.00,,CLR,0.00,VWS V13.00,2013-03-18 08:03:00,
2013-03-18 04:08:00,23.2,9.0,30.25,NE,35,2.2,4.0,54,0.00,,CLR,0.00,VWS V13.00,2013-03-18 08:08:00,
2013-03-18 04:13:00,22.6,8.5,30.25,NE,35,0.0,4.0,54,0.00,,CLR,0.00,VWS V13.00,2013-03-18 08:13:00,
2013-03-18 04:18:00,21.9,7.8,30.25,NE,35,0.0,4.0,54,0.00,,CLR,0.00,VWS V13.00,2013-03-18 08:18:00,
2013-03-18 04:23:00,21.7,7.7,30.25,NE,35,0.0,0.0,54,0.00,,CLR,0.00,VWS V13.00,2013-03-18 08:23:00,
2013-03-18 04:28:00,21.9,8.2,30.25,NE,35,0.0,0.0,55,0.00,,CLR,0.00,VWS V13.00,2013-03-18 08:28:00,
2013-03-18 04:33:00,22.1,8.4,30.25,NE,35,3.1,3.6,55,0.00,,CLR,0.00,VWS V13.00,2013-03-18 08:33:00,
2013-03-18 04:39:00,22.8,9.1,30.25,NE,45,4.0,4.5,55,0.00,,CLR,0.00,VWS V13.00,2013-03-18 08:39:00,
2013-03-18 04:44:00,22.5,8.8,30.25,ENE,58,2.7,4.0,55,0.00,,CLR,0.00,VWS V13.00,2013-03-18 08:44:00,
2013-03-18 04:49:00,22.1,8.8,30.25,ENE,58,2.7,4.0,56,0.00,,CLR,0.00,VWS V13.00,2013-03-18 08:49:00,
2013-03-18 04:54:00,22.1,8.8,30.28,ENE,58,2.7,4.0,56,0.00,,CLR,0.00,VWS V13.00,2013-03-18 08:54:00,
2013-03-18 04:59:00,21.9,8.6,30.28,ENE,58,2.7,4.0,56,0.00,,CLR,0.00,VWS V13.00,2013-03-18 08:59:00,
2013-03-18 05:04:00,21.9,8.6,30.28,ENE,58,2.7,3.6,56,0.00,,CLR,0.00,VWS V13.00,2013-03-18 09:04:00,
2013-03-18 05:09:00,21.7,8.5,30.28,ENE,61,4.0,4.0,56,0.00,,CLR,0.00,VWS V13.00,2013-03-18 09:09:00,
2013-03-18 05:14:00,22.1,8.8,30.28,ENE,64,3.1,4.5,56,0.00,,CLR,0.00,VWS V13.00,2013-03-18 09:14:00,
2013-03-18 05:19:00,22.5,9.1,30.28,ENE,64,3.6,4.5,56,0.00,,CLR,0.00,VWS V13.00,2013-03-18 09:19:00,
2013-03-18 05:24:00,22.5,9.1,30.28,ENE,66,4.0,4.9,56,0.00,,CLR,0.00,VWS V13.00,2013-03-18 09:24:00,
2013-03-18 05:29:00,22.6,8.9,30.28,NE,52,4.0,5.4,55,0.00,,CLR,0.00,VWS V13.00,2013-03-18 09:29:00,
2013-03-18 05:34:00,22.8,8.7,30.28,ENE,60,3.6,5.4,54,0.00,,CLR,0.00,VWS V13.00,2013-03-18 09:34:00,
2013-03-18 05:39:00,22.8,8.7,30.28,ENE,59,4.0,5.8,54,0.00,,CLR,0.00,VWS V13.00,2013-03-18 09:39:00,
2013-03-18 05:44:00,23.0,8.4,30.28,NE,40,4.0,5.4,53,0.00,,CLR,0.00,VWS V13.00,2013-03-18 09:44:00,
2013-03-18 05:49:00,22.8,8.3,30.28,NNE,26,4.9,5.8,53,0.00,,CLR,0.00,VWS V13.00,2013-03-18 09:49:00,
2013-03-18 05:54:00,22.8,7.8,30.28,ENE,58,3.1,6.3,52,0.00,,CLR,0.00,VWS V13.00,2013-03-18 09:54:00,
2013-03-18 05:59:00,22.8,7.8,30.28,ENE,59,4.9,6.3,52,0.00,,CLR,0.00,VWS V13.00,2013-03-18 09:59:00,
2013-03-18 06:04:00,23.0,7.6,30.28,NE,44,4.0,5.8,51,0.00,,CLR,0.00,VWS V13.00,2013-03-18 10:04:00,
2013-03-18 06:09:00,23.0,7.1,30.28,NE,55,5.4,5.8,50,0.00,,CLR,0.00,VWS V13.00,2013-03-18 10:09:00,
2013-03-18 06:14:00,23.0,7.1,30.28,ENE,61,3.6,5.8,50,0.00,,CLR,0.00,VWS V13.00,2013-03-18 10:14:00,
2013-03-18 06:19:00,23.0,7.1,30.28,NE,47,4.5,5.8,50,0.00,,CLR,0.00,VWS V13.00,2013-03-18 10:19:00,
2013-03-18 06:24:00,23.0,7.1,30.28,ENE,70,4.0,4.9,50,0.00,,CLR,0.00,VWS V13.00,2013-03-18 10:24:00,
2013-03-18 06:29:00,23.0,6.7,30.28,NE,46,2.7,4.9,49,0.00,,CLR,0.00,VWS V13.00,2013-03-18 10:29:00,
2013-03-18 06:34:00,23.0,6.7,30.28,ENE,63,2.2,4.9,49,0.00,,CLR,0.00,VWS V13.00,2013-03-18 10:34:00,
2013-03-18 06:39:00,23.0,6.7,30.28,ENE,63,2.2,4.9,49,0.00,,CLR,0.00,VWS V13.00,2013-03-18 10:39:00,
2013-03-18 06:45:00,23.0,6.7,30.28,NE,37,3.1,4.0,49,0.00,,CLR,0.00,VWS V13.00,2013-03-18 10:45:00,
2013-03-18 06:50:00,22.8,6.5,30.28,ENE,57,2.2,4.0,49,0.00,,CLR,0.00,VWS V13.00,2013-03-18 10:50:00,
2013-03-18 06:55:00,23.0,6.7,30.28,ENE,62,3.1,4.0,49,0.00,,CLR,0.00,VWS V13.00,2013-03-18 10:55:00,
2013-03-18 07:00:00,23.2,6.4,30.28,NE,49,2.7,4.0,48,0.00,,CLR,0.00,VWS V13.00,2013-03-18 11:00:00,
2013-03-18 07:05:00,23.2,5.9,30.28,NE,40,3.6,4.9,47,0.00,,CLR,0.00,VWS V13.00,2013-03-18 11:05:00,
2013-03-18 07:10:00,23.4,6.1,30.28,ENE,64,3.1,4.9,47,0.00,,CLR,0.00,VWS V13.00,2013-03-18 11:10:00,
2013-03-18 07:15:00,23.4,6.1,30.28,ENE,73,4.0,4.9,47,0.00,,CLR,0.00,VWS V13.00,2013-03-18 11:15:00,
2013-03-18 07:20:00,23.4,6.1,30.28,ENE,57,3.6,5.4,47,0.00,,CLR,0.00,VWS V13.00,2013-03-18 11:20:00,
2013-03-18 07:25:00,23.4,6.1,30.28,NE,52,4.0,4.0,47,0.00,,CLR,0.00,VWS V13.00,2013-03-18 11:25:00,
2013-03-18 07:30:00,23.5,6.3,30.28,ENE,59,3.1,5.4,47,0.00,,CLR,0.00,VWS V13.00,2013-03-18 11:30:00,
2013-03-18 07:35:00,23.5,6.3,30.28,ENE,58,3.6,5.4,47,0.00,,CLR,0.00,VWS V13.00,2013-03-18 11:35:00,
2013-03-18 07:40:00,23.5,6.3,30.28,ENE,63,3.6,5.4,47,0.00,,CLR,0.00,VWS V13.00,2013-03-18 11:40:00,
2013-03-18 07:45:00,23.7,6.4,30.28,ENE,78,5.4,5.8,47,0.00,,CLR,0.00,VWS V13.00,2013-03-18 11:45:00,
2013-03-18 07:50:00,23.9,6.1,30.28,East,82,4.0,5.8,46,0.00,,CLR,0.00,VWS V13.00,2013-03-18 11:50:00,
2013-03-18 07:55:00,24.1,6.3,30.28,East,95,3.1,6.3,46,0.00,,CLR,0.00,VWS V13.00,2013-03-18 11:55:00,
2013-03-18 08:00:00,24.1,6.3,30.28,East,91,5.8,6.3,46,0.00,,CLR,0.00,VWS V13.00,2013-03-18 12:00:00,
2013-03-18 08:05:00,24.4,6.6,30.28,NE,54,6.3,6.3,46,0.00,,CLR,0.00,VWS V13.00,2013-03-18 12:05:00,
2013-03-18 08:10:00,24.4,6.2,30.28,ENE,67,2.7,6.3,45,0.00,,CLR,0.00,VWS V13.00,2013-03-18 12:10:00,
2013-03-18 08:15:00,24.6,6.3,30.28,ENE,64,4.0,6.3,45,0.00,,CLR,0.00,VWS V13.00,2013-03-18 12:15:00,
2013-03-18 08:20:00,24.8,6.5,30.28,ENE,70,4.0,7.6,45,0.00,,CLR,0.00,VWS V13.00,2013-03-18 12:20:00,
2013-03-18 08:25:00,25.2,6.8,30.28,East,96,5.8,6.3,45,0.00,,CLR,0.00,VWS V13.00,2013-03-18 12:25:00,
2013-03-18 08:30:00,25.3,7.0,30.28,NE,49,3.6,6.3,45,0.00,,CLR,0.00,VWS V13.00,2013-03-18 12:30:00,
2013-03-18 08:35:00,25.5,7.2,30.28,East,96,5.8,7.2,45,0.00,,CLR,0.00,VWS V13.00,2013-03-18 12:35:00,
2013-03-18 08:40:00,25.3,7.0,30.28,East,83,5.8,7.6,45,0.00,,CLR,0.00,VWS V13.00,2013-03-18 12:40:00,
2013-03-18 08:45:00,25.7,7.3,30.28,NE,45,5.4,7.2,45,0.00,,CLR,0.00,VWS V13.00,2013-03-18 12:45:00,
2013-03-18 08:50:00,25.9,7.5,30.28,East,96,5.4,7.2,45,0.00,,CLR,0.00,VWS V13.00,2013-03-18 12:50:00,
2013-03-18 08:55:00,26.1,7.6,30.28,ENE,66,4.9,7.2,45,0.00,,CLR,0.00,VWS V13.00,2013-03-18 12:55:00,
2013-03-18 09:00:00,26.1,7.6,30.28,ENE,72,3.6,7.6,45,0.00,,CLR,0.00,VWS V13.00,2013-03-18 13:00:00,
2013-03-18 09:05:00,26.2,7.8,30.28,ENE,74,5.4,7.6,45,0.00,,CLR,0.00,VWS V13.00,2013-03-18 13:05:00,
2013-03-18 09:10:00,26.4,8.5,30.28,ENE,68,5.8,7.6,46,0.00,,CLR,0.00,VWS V13.00,2013-03-18 13:10:00,
2013-03-18 09:15:00,26.8,8.3,30.28,ENE,74,5.4,7.6,45,0.00,,CLR,0.00,VWS V13.00,2013-03-18 13:15:00,
2013-03-18 09:20:00,27.0,8.5,30.28,ENE,69,3.6,4.0,45,0.00,,CLR,0.00,VWS V13.00,2013-03-18 13:20:00,
2013-03-18 09:26:00,27.1,8.6,30.28,East,83,5.4,6.7,45,0.00,,CLR,0.00,VWS V13.00,2013-03-18 13:26:00,
2013-03-18 09:31:00,27.3,8.8,30.28,East,92,4.9,6.7,45,0.00,,CLR,0.00,VWS V13.00,2013-03-18 13:31:00,
2013-03-18 09:35:00,27.5,9.0,30.28,ESE,104,4.9,6.7,45,0.00,,CLR,0.00,VWS V13.00,2013-03-18 13:35:00,
2013-03-18 09:40:00,27.1,8.6,30.28,East,94,4.9,4.9,45,0.00,,CLR,0.00,VWS V13.00,2013-03-18 13:40:00,
2013-03-18 09:46:00,27.3,8.8,30.28,East,84,4.0,6.3,45,0.00,,CLR,0.00,VWS V13.00,2013-03-18 13:46:00,
2013-03-18 09:51:00,27.7,9.1,30.28,ENE,76,5.8,7.6,45,0.00,,CLR,0.00,VWS V13.00,2013-03-18 13:51:00,
2013-03-18 09:56:00,27.9,9.3,30.28,ESE,108,4.0,8.3,45,0.00,,CLR,0.00,VWS V13.00,2013-03-18 13:56:00,
2013-03-18 10:01:00,28.2,9.6,30.28,ESE,114,4.0,5.4,45,0.00,,CLR,0.00,VWS V13.00,2013-03-18 14:01:00,
2013-03-18 10:07:00,28.6,9.4,30.28,East,99,3.6,6.7,44,0.00,,CLR,0.00,VWS V13.00,2013-03-18 14:07:00,
2013-03-18 10:12:00,28.6,9.4,30.28,ENE,73,4.0,6.7,44,0.00,,CLR,0.00,VWS V13.00,2013-03-18 14:12:00,
2013-03-18 10:17:00,28.9,10.3,30.28,East,93,5.8,8.1,45,0.00,,CLR,0.00,VWS V13.00,2013-03-18 14:17:00,
2013-03-18 10:22:00,29.1,10.4,30.28,SE,124,3.6,6.3,45,0.00,,CLR,0.00,VWS V13.00,2013-03-18 14:22:00,
2013-03-18 10:27:00,28.9,10.3,30.28,East,89,6.3,7.6,45,0.00,,CLR,0.00,VWS V13.00,2013-03-18 14:27:00,
2013-03-18 10:32:00,29.1,10.4,30.28,ESE,110,3.1,7.6,45,0.00,,CLR,0.00,VWS V13.00,2013-03-18 14:32:00,
2013-03-18 10:37:00,29.5,10.8,30.28,ESE,106,3.6,7.6,45,0.00,,CLR,0.00,VWS V13.00,2013-03-18 14:37:00,
2013-03-18 10:42:00,30.2,11.4,30.25,South,169,4.9,7.6,45,0.00,,CLR,0.00,VWS V13.00,2013-03-18 14:42:00,
2013-03-18 10:47:00,30.0,11.3,30.25,East,101,5.8,8.3,45,0.00,,CLR,0.00,VWS V13.00,2013-03-18 14:47:00,
2013-03-18 10:52:00,29.7,10.9,30.25,East,83,5.8,8.3,45,0.00,,CLR,0.00,VWS V13.00,2013-03-18 14:52:00,
2013-03-18 10:57:00,30.0,11.3,30.25,East,91,5.8,8.3,45,0.00,,CLR,0.00,VWS V13.00,2013-03-18 14:57:00,
2013-03-18 11:02:00,30.7,11.9,30.25,SE,124,3.6,5.8,45,0.00,,CLR,0.00,VWS V13.00,2013-03-18 15:02:00,
2013-03-18 11:07:00,30.7,11.9,30.25,East,95,4.0,6.3,45,0.00,,CLR,0.00,VWS V13.00,2013-03-18 15:07:00,
2013-03-18 11:12:00,31.1,12.2,30.25,ESE,111,3.1,7.6,45,0.00,,CLR,0.00,VWS V13.00,2013-03-18 15:12:00,
2013-03-18 11:17:00,31.3,12.4,30.25,SSE,152,5.4,7.6,45,0.00,,CLR,0.00,VWS V13.00,2013-03-18 15:17:00,
2013-03-18 11:22:00,31.6,12.8,30.25,SE,145,5.4,7.2,45,0.00,,CLR,0.00,VWS V13.00,2013-03-18 15:22:00,
2013-03-18 11:27:00,32.0,13.1,30.25,ESE,116,7.6,10.5,45,0.00,,CLR,0.00,VWS V13.00,2013-03-18 15:27:00,
2013-03-18 11:33:00,31.6,12.8,30.25,ESE,110,5.4,10.5,45,0.00,,CLR,0.00,VWS V13.00,2013-03-18 15:33:00,
2013-03-18 11:38:00,32.2,13.2,30.25,ESE,104,5.4,10.5,45,0.00,,CLR,0.00,VWS V13.00,2013-03-18 15:38:00,
2013-03-18 11:43:00,32.5,13.6,30.25,SSE,151,8.1,8.7,45,0.00,,CLR,0.00,VWS V13.00,2013-03-18 15:43:00,
2013-03-18 11:48:00,33.3,14.2,30.25,SE,143,5.4,8.7,45,0.00,,CLR,0.00,VWS V13.00,2013-03-18 15:48:00,
2013-03-18 11:53:00,32.9,13.9,30.25,East,89,6.3,10.1,45,0.00,,CLR,0.00,VWS V13.00,2013-03-18 15:53:00,
2013-03-18 11:58:00,32.7,13.7,30.25,SE,133,8.1,10.1,45,0.00,,CLR,0.00,VWS V13.00,2013-03-18 15:58:00,
2013-03-18 12:03:00,32.7,13.7,30.25,ENE,61,4.0,8.3,45,0.00,,CLR,0.00,VWS V13.00,2013-03-18 16:03:00,
2013-03-18 12:08:00,32.7,13.7,30.25,SE,131,5.8,10.5,45,0.00,,CLR,0.00,VWS V13.00,2013-03-18 16:08:00,
2013-03-18 12:13:00,33.1,14.1,30.25,South,172,4.0,10.5,45,0.00,,CLR,0.00,VWS V13.00,2013-03-18 16:13:00,
2013-03-18 12:18:00,32.7,13.7,30.25,East,96,3.6,10.5,45,0.00,,CLR,0.00,VWS V13.00,2013-03-18 16:18:00,
2013-03-18 12:23:00,33.1,14.1,30.25,ESE,117,3.6,6.3,45,0.00,,CLR,0.00,VWS V13.00,2013-03-18 16:23:00,
2013-03-18 12:28:00,33.1,14.1,30.25,East,93,3.1,8.7,45,0.00,,CLR,0.00,VWS V13.00,2013-03-18 16:28:00,
2013-03-18 12:33:00,33.1,14.1,30.25,ENE,63,4.0,8.7,45,0.00,,CLR,0.00,VWS V13.00,2013-03-18 16:33:00,
2013-03-18 12:38:00,33.1,14.6,30.22,East,82,5.4,8.7,46,0.00,,CLR,0.00,VWS V13.00,2013-03-18 16:38:00,
2013-03-18 12:43:00,33.4,14.9,30.22,East,97,4.0,5.8,46,0.00,,CLR,0.00,VWS V13.00,2013-03-18 16:43:00,
2013-03-18 12:48:00,33.4,14.9,30.22,East,100,5.8,10.5,46,0.00,,CLR,0.00,VWS V13.00,2013-03-18 16:48:00,
2013-03-18 12:53:00,33.6,15.1,30.22,ESE,111,3.1,10.5,46,0.00,,CLR,0.00,VWS V13.00,2013-03-18 16:53:00,
2013-03-18 12:58:00,34.0,15.4,30.22,ENE,59,3.6,10.5,46,0.00,,CLR,0.00,VWS V13.00,2013-03-18 16:58:00,
2013-03-18 13:03:00,33.6,15.1,30.22,East,91,5.8,8.3,46,0.00,,CLR,0.00,VWS V13.00,2013-03-18 17:03:00,
2013-03-18 13:08:00,33.4,14.9,30.22,ESE,120,8.3,10.1,46,0.00,,CLR,0.00,VWS V13.00,2013-03-18 17:08:00,
2013-03-18 13:13:00,33.4,15.4,30.22,SE,128,5.8,10.1,47,0.00,,CLR,0.00,VWS V13.00,2013-03-18 17:13:00,
2013-03-18 13:19:00,33.3,15.2,30.22,ESE,107,4.0,10.1,47,0.00,,CLR,0.00,VWS V13.00,2013-03-18 17:19:00,
2013-03-18 13:24:00,32.9,14.9,30.19,East,86,5.8,7.6,47,0.00,,CLR,0.00,VWS V13.00,2013-03-18 17:24:00,
2013-03-18 13:29:00,33.3,15.7,30.19,SE,124,5.4,8.7,48,0.00,,CLR,0.00,VWS V13.00,2013-03-18 17:29:00,
2013-03-18 13:34:00,33.4,16.4,30.19,ESE,104,6.3,10.5,49,0.00,,BKN110,0.00,VWS V13.00,2013-03-18 17:34:00,
2013-03-18 13:39:00,33.1,16.0,30.19,SE,126,5.4,10.5,49,0.00,,BKN110,0.00,VWS V13.00,2013-03-18 17:39:00,
2013-03-18 13:44:00,32.9,15.9,30.19,ENE,77,4.9,7.6,49,0.00,,BKN110,0.00,VWS V13.00,2013-03-18 17:44:00,
2013-03-18 13:49:00,32.7,16.1,30.19,East,84,3.6,7.6,50,0.00,,BKN110,0.00,VWS V13.00,2013-03-18 17:49:00,
2013-03-18 13:54:00,32.7,16.1,30.19,ENE,70,5.8,7.6,50,0.00,,BKN110,0.00,VWS V13.00,2013-03-18 17:54:00,
2013-03-18 13:59:00,32.7,16.1,30.19,ENE,78,3.6,7.6,50,0.00,,BKN110,0.00,VWS V13.00,2013-03-18 17:59:00,
2013-03-18 14:04:00,32.9,16.8,30.19,ESE,118,3.6,7.6,51,0.00,,BKN110,0.00,VWS V13.00,2013-03-18 18:04:00,
2013-03-18 14:09:00,32.7,16.6,30.16,ESE,113,7.6,10.1,51,0.00,,BKN110,0.00,VWS V13.00,2013-03-18 18:09:00,
2013-03-18 14:14:00,32.7,17.0,30.16,ESE,107,3.1,10.5,52,0.00,,BKN110,0.00,VWS V13.00,2013-03-18 18:14:00,
2013-03-18 14:19:00,32.7,17.0,30.16,East,100,3.6,11.0,52,0.00,,BKN110,0.00,VWS V13.00,2013-03-18 18:19:00,
2013-03-18 14:24:00,32.5,17.3,30.16,ENE,78,6.3,6.3,53,0.00,,BKN110,0.00,VWS V13.00,2013-03-18 18:24:00,
2013-03-18 14:29:00,32.5,17.8,30.16,East,93,5.4,8.1,54,0.00,,BKN110,0.00,VWS V13.00,2013-03-18 18:29:00,
2013-03-18 14:34:00,32.5,17.8,30.16,ESE,121,10.5,10.5,54,0.00,,OVC085,0.00,VWS V13.00,2013-03-18 18:34:00,
2013-03-18 14:39:00,32.5,17.8,30.16,ENE,75,5.8,10.5,54,0.00,,OVC085,0.00,VWS V13.00,2013-03-18 18:39:00,
2013-03-18 14:44:00,32.4,17.6,30.16,ESE,102,3.1,8.1,54,0.00,,OVC085,0.00,VWS V13.00,2013-03-18 18:44:00,
2013-03-18 14:49:00,32.4,17.6,30.16,East,82,5.4,8.1,54,0.00,,OVC085,0.00,VWS V13.00,2013-03-18 18:49:00,
2013-03-18 14:54:00,32.4,17.6,30.16,East,89,3.6,8.1,54,0.00,,OVC085,0.00,VWS V13.00,2013-03-18 18:54:00,
2013-03-18 14:59:00,32.2,17.0,30.16,East,79,4.0,8.1,53,0.00,,OVC085,0.00,VWS V13.00,2013-03-18 18:59:00,
2013-03-18 15:04:00,32.2,17.0,30.16,East,98,5.4,6.3,53,0.00,,OVC085,0.00,VWS V13.00,2013-03-18 19:04:00,
2013-03-18 15:09:00,32.0,16.8,30.14,ENE,74,5.4,6.3,53,0.00,,OVC085,0.00,VWS V13.00,2013-03-18 19:09:00,
2013-03-18 15:15:00,32.0,16.8,30.14,ENE,70,4.9,6.3,53,0.00,,OVC085,0.00,VWS V13.00,2013-03-18 19:15:00,
2013-03-18 15:20:00,31.8,16.2,30.14,East,91,3.1,6.3,52,0.00,,OVC085,0.00,VWS V13.00,2013-03-18 19:20:00,
2013-03-18 15:25:00,31.8,16.2,30.14,NE,48,4.0,7.6,52,0.00,,OVC085,0.00,VWS V13.00,2013-03-18 19:25:00,
2013-03-18 15:30:00,31.8,16.2,30.14,East,98,5.4,8.1,52,0.00,,OVC085,0.00,VWS V13.00,2013-03-18 19:30:00,
2013-03-18 15:35:00,31.8,16.2,30.14,SE,135,0.0,8.1,52,0.00,,OVC080,0.00,VWS V13.00,2013-03-18 19:35:00,
2013-03-18 15:40:00,31.8,16.2,30.16,East,79,3.6,8.1,52,0.00,,OVC080,0.00,VWS V13.00,2013-03-18 19:40:00,
2013-03-18 15:45:00,31.8,16.6,30.16,East,97,5.4,6.7,53,0.00,,OVC080,0.00,VWS V13.00,2013-03-18 19:45:00,
2013-03-18 15:50:00,31.6,16.5,30.16,SE,129,3.1,7.6,53,0.00,,OVC080,0.00,VWS V13.00,2013-03-18 19:50:00,
2013-03-18 15:55:00,31.6,16.5,30.14,East,91,4.9,7.6,53,0.00,,OVC080,0.00,VWS V13.00,2013-03-18 19:55:00,
2013-03-18 16:00:00,31.5,17.2,30.14,ENE,75,5.8,7.6,55,0.00,,OVC080,0.00,VWS V13.00,2013-03-18 20:00:00,
2013-03-18 16:05:00,30.9,17.1,30.14,ENE,71,4.0,6.3,56,0.00,,OVC080,0.00,VWS V13.00,2013-03-18 20:05:00,
2013-03-18 16:10:00,30.7,17.3,30.14,East,97,7.6,8.1,57,0.00,,OVC080,0.00,VWS V13.00,2013-03-18 20:10:00,
2013-03-18 16:15:00,30.6,17.6,30.14,East,100,5.4,8.1,58,0.00,,OVC080,0.00,VWS V13.00,2013-03-18 20:15:00,
2013-03-18 16:20:00,30.4,18.6,30.14,East,85,4.0,8.1,61,0.00,,OVC080,0.00,VWS V13.00,2013-03-18 20:20:00,
2013-03-18 16:25:00,30.0,19.0,30.11,East,100,3.1,6.7,63,0.00,,OVC080,0.00,VWS V13.00,2013-03-18 20:25:00,
2013-03-18 16:30:00,29.7,19.0,30.11,East,95,6.3,7.6,64,0.00,,OVC080,0.00,VWS V13.00,2013-03-18 20:30:00,
2013-03-18 16:35:00,29.3,19.0,30.11,ENE,71,5.4,7.6,65,0.00,,,0.00,VWS V13.00,2013-03-18 20:35:00,
2013-03-18 16:40:00,29.1,19.9,30.11,East,91,7.6,7.6,68,0.00,,,0.00,VWS V13.00,2013-03-18 20:40:00,
2013-03-18 16:45:00,28.8,20.2,30.11,East,86,5.4,8.1,70,0.00,,,0.00,VWS V13.00,2013-03-18 20:45:00,
2013-03-18 16:50:00,28.6,20.4,30.11,ENE,76,4.9,8.1,71,0.00,,,0.00,VWS V13.00,2013-03-18 20:50:00,
2013-03-18 16:55:00,28.6,20.7,30.11,ENE,59,5.4,8.1,72,0.00,,,0.00,VWS V13.00,2013-03-18 20:55:00,
2013-03-18 17:00:00,28.4,20.5,30.11,East,90,3.1,4.0,72,0.00,,,0.00,VWS V13.00,2013-03-18 21:00:00,
2013-03-18 17:06:00,28.6,21.0,30.11,ENE,77,5.4,6.3,73,0.00,,,0.00,VWS V13.00,2013-03-18 21:06:00,
2013-03-18 17:11:00,28.4,21.5,30.11,ENE,70,6.7,8.3,75,0.00,,,0.00,VWS V13.00,2013-03-18 21:11:00,
2013-03-18 17:16:00,28.2,21.3,30.11,East,90,4.9,8.3,75,0.00,,,0.00,VWS V13.00,2013-03-18 21:16:00,
2013-03-18 17:21:00,28.2,21.3,30.11,ESE,103,8.1,8.3,75,0.00,,,0.00,VWS V13.00,2013-03-18 21:21:00,
2013-03-18 17:26:00,27.9,21.0,30.11,ESE,117,4.9,10.1,75,0.00,,,0.00,VWS V13.00,2013-03-18 21:26:00,
2013-03-18 17:31:00,27.9,21.0,30.11,East,94,5.8,10.1,75,0.00,,,0.00,VWS V13.00,2013-03-18 21:31:00,
2013-03-18 17:36:00,27.9,21.3,30.11,ENE,64,5.8,10.1,76,0.00,,,0.00,VWS V13.00,2013-03-18 21:36:00,
2013-03-18 17:41:00,27.7,21.4,30.08,ENE,61,6.3,6.3,77,0.00,,,0.00,VWS V13.00,2013-03-18 21:41:00,
2013-03-18 17:46:00,27.5,21.5,30.08,East,89,6.3,9.2,78,0.00,,,0.00,VWS V13.00,2013-03-18 21:46:00,
2013-03-18 17:51:00,27.5,21.5,30.08,ENE,60,6.3,9.2,78,0.00,,,0.00,VWS V13.00,2013-03-18 21:51:00,
2013-03-18 17:57:00,27.3,21.7,30.05,East,98,5.8,9.2,79,0.00,,,0.00,VWS V13.00,2013-03-18 21:57:00,
2013-03-18 18:02:00,27.3,22.0,30.05,ENE,72,7.6,7.6,80,0.00,,,0.00,VWS V13.00,2013-03-18 22:02:00,
2013-03-18 18:07:00,27.3,22.3,30.05,East,99,5.8,8.7,81,0.00,,,0.00,VWS V13.00,2013-03-18 22:07:00,
2013-03-18 18:13:00,27.1,22.1,30.05,NE,54,5.4,8.7,81,0.00,,,0.00,VWS V13.00,2013-03-18 22:13:00,
2013-03-18 18:18:00,27.0,22.2,30.05,ENE,59,3.6,8.7,82,0.00,,,0.00,VWS V13.00,2013-03-18 22:18:00,
2013-03-18 18:23:00,27.1,22.4,30.05,East,94,4.9,7.6,82,0.00,,,0.00,VWS V13.00,2013-03-18 22:23:00,
2013-03-18 18:28:00,27.1,22.4,30.05,ENE,72,5.8,8.1,82,0.00,,,0.00,VWS V13.00,2013-03-18 22:28:00,
2013-03-18 18:33:00,27.1,22.4,30.05,ENE,71,5.8,8.1,82,0.00,,,0.00,VWS V13.00,2013-03-18 22:33:00,
2013-03-18 18:38:00,27.1,22.7,30.05,ENE,62,4.9,8.1,83,0.00,,,0.00,VWS V13.00,2013-03-18 22:38:00,
2013-03-18 18:43:00,27.1,22.7,30.05,ENE,68,5.8,6.3,83,0.00,,,0.00,VWS V13.00,2013-03-18 22:43:00,
2013-03-18 18:48:00,27.1,23.0,30.05,ENE,60,5.4,6.3,84,0.00,,,0.00,VWS V13.00,2013-03-18 22:48:00,
2013-03-18 18:53:00,27.0,22.8,30.05,NE,53,5.8,7.6,84,0.00,,,0.00,VWS V13.00,2013-03-18 22:53:00,
2013-03-18 18:58:00,27.1,23.0,30.05,ENE,70,5.4,7.6,84,0.00,,,0.00,VWS V13.00,2013-03-18 22:58:00,
2013-03-18 19:03:00,27.1,23.2,30.05,NE,56,6.3,6.3,85,0.00,,,0.00,VWS V13.00,2013-03-18 23:03:00,
2013-03-18 19:08:00,27.1,23.2,30.05,ENE,61,5.4,7.6,85,0.00,,,0.00,VWS V13.00,2013-03-18 23:08:00,
2013-03-18 19:13:00,27.1,23.2,30.05,ENE,66,5.8,7.6,85,0.00,,,0.00,VWS V13.00,2013-03-18 23:13:00,
2013-03-18 19:18:00,27.1,23.5,30.05,ENE,63,6.7,7.6,86,0.00,,,0.00,VWS V13.00,2013-03-18 23:18:00,
2013-03-18 19:23:00,27.1,23.5,30.05,East,89,5.4,5.8,86,0.00,,,0.00,VWS V13.00,2013-03-18 23:23:00,
2013-03-18 19:28:00,27.1,23.5,30.05,ENE,61,5.8,8.1,86,0.00,,,0.00,VWS V13.00,2013-03-18 23:28:00,
2013-03-18 19:33:00,27.1,23.8,30.05,East,95,6.3,8.1,87,0.00,,,0.00,VWS V13.00,2013-03-18 23:33:00,
2013-03-18 19:38:00,27.1,23.8,30.05,East,98,5.8,8.3,87,0.00,,,0.00,VWS V13.00,2013-03-18 23:38:00,
2013-03-18 19:43:00,27.3,24.0,30.05,East,80,4.0,8.1,87,0.00,,,0.00,VWS V13.00,2013-03-18 23:43:00,
2013-03-18 19:48:00,27.3,24.0,30.05,ENE,69,6.3,8.1,87,0.00,,,0.00,VWS V13.00,2013-03-18 23:48:00,
2013-03-18 19:53:00,27.3,24.0,30.05,ENE,60,4.9,8.1,87,0.00,,,0.00,VWS V13.00,2013-03-18 23:53:00,
2013-03-18 19:58:00,27.3,24.0,30.05,East,101,6.3,8.1,87,0.00,,,0.00,VWS V13.00,2013-03-18 23:58:00,
2013-03-18 20:03:00,27.3,24.0,30.05,ENE,69,4.9,5.8,87,0.00,,,0.00,VWS V13.00,2013-03-19 00:03:00,
2013-03-18 20:08:00,27.3,24.0,30.02,ENE,73,5.4,6.7,87,0.00,,,0.00,VWS V13.00,2013-03-19 00:08:00,
2013-03-18 20:13:00,27.5,24.4,30.02,East,79,3.6,7.6,88,0.00,,,0.00,VWS V13.00,2013-03-19 00:13:00,
2013-03-18 20:18:00,27.5,24.4,30.02,East,91,5.4,8.1,88,0.00,,,0.00,VWS V13.00,2013-03-19 00:18:00,
2013-03-18 20:23:00,27.5,24.4,30.02,ENE,75,5.4,6.3,88,0.00,,,0.00,VWS V13.00,2013-03-19 00:23:00,
2013-03-18 20:28:00,27.7,24.6,30.02,ENE,64,5.8,8.3,88,0.00,,,0.00,VWS V13.00,2013-03-19 00:28:00,
2013-03-18 20:33:00,27.7,24.6,30.02,East,85,7.6,8.3,88,0.00,,,0.00,VWS V13.00,2013-03-19 00:33:00,
2013-03-18 20:38:00,27.7,24.6,30.02,East,80,5.4,8.3,88,0.00,,,0.00,VWS V13.00,2013-03-19 00:38:00,
2013-03-18 20:43:00,27.7,24.6,30.02,ENE,59,6.3,8.3,88,0.00,,,0.00,VWS V13.00,2013-03-19 00:43:00,
2013-03-18 20:48:00,27.9,25.0,30.02,East,93,7.6,8.3,89,0.00,,,0.00,VWS V13.00,2013-03-19 00:48:00,
2013-03-18 20:53:00,27.9,25.0,30.02,ENE,57,5.4,8.3,89,0.00,,,0.00,VWS V13.00,2013-03-19 00:53:00,
2013-03-18 20:58:00,27.9,25.0,30.02,ENE,75,8.1,8.3,89,0.00,,,0.00,VWS V13.00,2013-03-19 00:58:00,
2013-03-18 21:03:00,27.9,25.0,30.02,ENE,58,4.0,6.7,89,0.00,,,0.00,VWS V13.00,2013-03-19 01:03:00,
2013-03-18 21:08:00,28.0,25.2,30.02,ENE,71,5.8,8.1,89,0.00,,,0.00,VWS V13.00,2013-03-19 01:08:00,
2013-03-18 21:14:00,28.0,25.2,30.02,East,79,8.1,8.3,89,0.00,,,0.00,VWS V13.00,2013-03-19 01:14:00,
2013-03-18 21:19:00,28.2,25.4,30.02,ENE,62,5.8,8.3,89,0.00,,,0.00,VWS V13.00,2013-03-19 01:19:00,
2013-03-18 21:24:00,28.0,25.5,29.99,East,79,4.9,8.3,90,0.00,,,0.00,VWS V13.00,2013-03-19 01:24:00,
2013-03-18 21:29:00,28.2,25.7,29.99,ENE,74,5.4,8.3,90,0.00,,,0.00,VWS V13.00,2013-03-19 01:29:00,
2013-03-18 21:34:00,28.0,25.5,29.99,ESE,102,5.8,8.3,90,0.00,,,0.00,VWS V13.00,2013-03-19 01:34:00,
2013-03-18 21:39:00,28.0,25.5,29.96,ENE,71,8.7,8.7,90,0.00,,,0.00,VWS V13.00,2013-03-19 01:39:00,
2013-03-18 21:44:00,28.0,25.5,29.96,ENE,78,5.8,8.1,90,0.00,,,0.00,VWS V13.00,2013-03-19 01:44:00,
2013-03-18 21:49:00,28.2,25.9,29.96,East,92,5.4,8.1,91,0.00,,,0.00,VWS V13.00,2013-03-19 01:49:00,
2013-03-18 21:54:00,28.4,26.1,29.99,ENE,61,5.8,8.7,91,0.00,,,0.00,VWS V13.00,2013-03-19 01:54:00,
2013-03-18 21:59:00,28.4,26.1,29.99,ENE,70,5.4,8.7,91,0.00,,,0.00,VWS V13.00,2013-03-19 01:59:00,
2013-03-18 22:04:00,28.6,26.3,29.99,ENE,71,8.1,8.1,91,0.00,,,0.00,VWS V13.00,2013-03-19 02:04:00,
2013-03-18 22:09:00,28.6,26.0,29.99,ENE,65,7.6,8.3,90,0.00,,,0.00,VWS V13.00,2013-03-19 02:09:00,
2013-03-18 22:14:00,28.6,26.0,29.99,East,86,6.3,8.3,90,0.00,,,0.00,VWS V13.00,2013-03-19 02:14:00,
2013-03-18 22:19:00,28.8,26.2,29.99,ENE,75,6.3,10.5,90,0.00,,,0.00,VWS V13.00,2013-03-19 02:19:00,
2013-03-18 22:24:00,28.9,26.4,29.99,ESE,109,2.2,6.3,90,0.00,,,0.00,VWS V13.00,2013-03-19 02:24:00,
2013-03-18 22:29:00,29.1,26.8,29.99,East,89,4.9,8.3,91,0.00,,,0.00,VWS V13.00,2013-03-19 02:29:00,
2013-03-18 22:34:00,29.3,27.0,29.99,East,90,8.3,8.7,91,0.00,,,0.00,VWS V13.00,2013-03-19 02:34:00,
2013-03-18 22:39:00,29.5,27.2,29.96,ENE,63,6.7,8.7,91,0.00,,,0.00,VWS V13.00,2013-03-19 02:39:00,
2013-03-18 22:44:00,29.7,27.4,29.96,East,85,6.7,9.6,91,0.00,,,0.00,VWS V13.00,2013-03-19 02:44:00,
2013-03-18 22:49:00,29.7,27.4,29.96,East,98,6.3,9.6,91,0.00,,,0.00,VWS V13.00,2013-03-19 02:49:00,
2013-03-18 22:54:00,30.2,28.2,29.96,East,90,5.4,9.6,92,0.00,,,0.00,VWS V13.00,2013-03-19 02:54:00,
2013-03-18 22:59:00,30.2,28.2,29.96,East,88,5.4,10.1,92,0.00,,,0.00,VWS V13.00,2013-03-19 02:59:00,
2013-03-18 23:04:00,30.2,28.2,29.96,East,92,8.7,10.5,92,0.00,,,0.00,VWS V13.00,2013-03-19 03:04:00,
2013-03-18 23:10:00,30.2,28.2,29.96,East,98,8.1,10.5,92,0.00,,,0.00,VWS V13.00,2013-03-19 03:10:00,
2013-03-18 23:15:00,30.0,28.0,29.96,ESE,123,5.4,10.5,92,0.00,,,0.00,VWS V13.00,2013-03-19 03:15:00,
2013-03-18 23:20:00,30.0,28.0,29.96,East,94,6.3,10.5,92,0.00,,,0.00,VWS V13.00,2013-03-19 03:20:00,
2013-03-18 23:25:00,30.0,28.0,29.93,East,80,7.6,9.6,92,0.00,,,0.00,VWS V13.00,2013-03-19 03:25:00,
2013-03-18 23:30:00,30.2,28.4,29.93,ENE,65,7.6,9.6,93,0.00,,,0.00,VWS V13.00,2013-03-19 03:30:00,
2013-03-18 23:35:00,30.2,28.4,29.93,NE,50,6.3,10.1,93,0.00,,,0.00,VWS V13.00,2013-03-19 03:35:00,
2013-03-18 23:40:00,30.6,28.8,29.93,East,89,7.6,10.1,93,0.00,,,0.00,VWS V13.00,2013-03-19 03:40:00,
2013-03-18 23:45:00,30.6,28.8,29.93,East,93,8.1,10.1,93,0.00,,,0.00,VWS V13.00,2013-03-19 03:45:00,
2013-03-18 23:50:00,30.6,28.8,29.93,East,84,5.8,10.1,93,0.00,,,0.00,VWS V13.00,2013-03-19 03:50:00,
2013-03-18 23:55:00,30.6,28.8,29.90,East,100,8.3,10.1,93,0.00,,,0.00,VWS V13.00,2013-03-19 03:55:00,